Time;durP1;ratioP1;P1;durP2;ratioP2;P2;SDS_P1;SDS_P2;PMS_P1;PMS_P2;Temp;Humidity;BMP_temperature;BMP_pressure;BME280_temperature;BME280_humidity;BME280_pressure;Samples;Min_cycle;Max_cycle;Signal;HPM_P1;HPM_P2
2021/06/09 00:00:01;;;;;;;58.83;53.40;;;14.90;99.90;;;;;;5033314;28;20542;-73
2021/06/09 00:02:27;;;;;;;59.10;53.10;;;14.80;99.90;;;;;;5035328;28;20486;-74
2021/06/09 00:04:54;;;;;;;58.77;53.17;;;14.80;99.90;;;;;;5032153;28;20464;-75
2021/06/09 00:07:20;;;;;;;57.40;51.40;;;14.70;99.90;;;;;;5036255;28;20460;-74
2021/06/09 00:09:46;;;;;;;57.03;51.43;;;14.70;99.90;;;;;;5035450;28;20468;-74
2021/06/09 00:12:13;;;;;;;55.60;50.50;;;14.70;99.90;;;;;;5035960;28;20503;-73
2021/06/09 00:14:40;;;;;;;56.27;50.87;;;14.70;99.90;;;;;;5036363;28;20571;-74
2021/06/09 00:17:07;;;;;;;58.90;53.33;;;14.60;99.90;;;;;;5031621;28;20468;-75
2021/06/09 00:19:33;;;;;;;54.70;49.70;;;14.60;99.90;;;;;;5033194;28;20472;-74
2021/06/09 00:21:59;;;;;;;57.00;51.03;;;14.60;99.90;;;;;;5032017;28;20487;-73
2021/06/09 00:24:26;;;;;;;55.17;49.97;;;14.60;99.90;;;;;;5039090;28;20995;-74
2021/06/09 00:26:54;;;;;;;57.27;51.60;;;14.50;99.90;;;;;;5032364;28;20589;-75
2021/06/09 00:29:22;;;;;;;55.73;50.43;;;14.50;99.90;;;;;;5040275;28;20470;-75
2021/06/09 00:31:50;;;;;;;56.73;51.03;;;14.50;99.90;;;;;;5041410;28;20494;-74
2021/06/09 00:34:16;;;;;;;55.83;50.73;;;14.40;99.90;;;;;;5036513;28;20469;-74
2021/06/09 00:36:43;;;;;;;58.33;52.50;;;14.40;99.90;;;;;;5034446;28;20468;-73
2021/06/09 00:39:09;;;;;;;57.77;52.10;;;14.40;99.90;;;;;;5034081;28;20680;-75
2021/06/09 00:41:36;;;;;;;56.43;51.10;;;14.30;99.90;;;;;;5036838;28;20464;-74
2021/06/09 00:44:03;;;;;;;56.73;51.40;;;14.30;99.90;;;;;;5034414;28;20580;-74
2021/06/09 00:46:35;;;;;;;58.30;52.63;;;14.30;99.90;;;;;;5037958;28;20476;-73
2021/06/09 00:49:04;;;;;;;56.57;50.90;;;14.20;99.90;;;;;;5031558;28;20915;-74
2021/06/09 00:51:30;;;;;;;54.47;49.30;;;14.20;99.90;;;;;;5038202;28;20857;-74
2021/06/09 00:53:59;;;;;;;55.73;50.10;;;14.20;99.90;;;;;;5042011;28;20456;-74
2021/06/09 00:56:26;;;;;;;54.53;48.97;;;14.10;99.90;;;;;;5033867;28;20550;-75
2021/06/09 00:58:54;;;;;;;57.20;51.33;;;14.10;99.90;;;;;;5033224;28;20993;-74
2021/06/09 01:01:22;;;;;;;56.83;51.13;;;14.10;99.90;;;;;;5033373;28;20483;-74
2021/06/09 01:03:49;;;;;;;56.30;50.83;;;14.20;99.90;;;;;;5029231;28;20721;-74
2021/06/09 01:06:17;;;;;;;54.60;49.50;;;14.20;99.90;;;;;;5042748;28;20565;-74
2021/06/09 01:08:44;;;;;;;55.97;50.70;;;14.10;99.90;;;;;;5032167;28;20465;-74
2021/06/09 01:11:12;;;;;;;57.33;51.37;;;14.10;99.90;;;;;;5039690;28;20496;-74
2021/06/09 01:13:39;;;;;;;55.23;50.03;;;14.00;99.90;;;;;;5039783;28;20875;-74
2021/06/09 01:16:06;;;;;;;52.40;47.43;;;14.00;99.90;;;;;;5038221;28;20529;-75
2021/06/09 01:18:32;;;;;;;53.57;48.37;;;14.00;99.90;;;;;;5033848;28;20459;-75
2021/06/09 01:20:58;;;;;;;53.57;48.40;;;14.00;99.90;;;;;;5037056;28;20455;-74
2021/06/09 01:23:27;;;;;;;54.47;49.40;;;14.00;99.90;;;;;;5040419;28;20452;-75
2021/06/09 01:25:55;;;;;;;53.87;48.67;;;14.00;99.90;;;;;;5037386;28;20452;-74
2021/06/09 01:28:22;;;;;;;56.77;51.20;;;13.90;99.90;;;;;;5036060;28;20494;-74
2021/06/09 01:30:49;;;;;;;61.23;54.93;;;13.90;99.90;;;;;;5038329;28;20483;-74
2021/06/09 01:33:16;;;;;;;57.70;51.90;;;13.90;99.90;;;;;;5032809;28;20463;-77
2021/06/09 01:35:44;;;;;;;58.83;53.23;;;13.80;99.90;;;;;;5034685;28;20864;-73
2021/06/09 01:38:11;;;;;;;56.90;51.20;;;13.80;99.90;;;;;;5034819;28;20520;-74
2021/06/09 01:40:40;;;;;;;57.83;52.13;;;13.70;99.90;;;;;;5040117;28;20460;-74
2021/06/09 01:43:07;;;;;;;56.47;50.93;;;13.80;99.90;;;;;;5034660;28;20464;-74
2021/06/09 01:45:35;;;;;;;52.07;46.97;;;13.80;99.90;;;;;;5037497;28;20484;-74
2021/06/09 01:48:02;;;;;;;50.83;45.97;;;13.70;99.90;;;;;;5038769;28;20473;-75
2021/06/09 01:50:30;;;;;;;51.53;46.63;;;13.70;99.90;;;;;;5034408;28;21025;-75
2021/06/09 01:52:57;;;;;;;52.20;47.20;;;13.60;99.90;;;;;;5037651;28;20495;-74
2021/06/09 01:55:25;;;;;;;52.00;47.00;;;13.70;99.90;;;;;;5034451;28;20467;-76
2021/06/09 01:57:53;;;;;;;51.60;46.70;;;13.60;99.90;;;;;;5034721;28;20460;-74
2021/06/09 02:00:24;;;;;;;55.43;49.77;;;13.60;99.90;;;;;;5040752;28;20496;-76
2021/06/09 02:02:53;;;;;;;55.47;49.63;;;13.60;99.90;;;;;;5029279;28;20487;-75
2021/06/09 02:05:20;;;;;;;60.93;54.57;;;13.50;99.90;;;;;;5038571;28;20456;-75
2021/06/09 02:07:46;;;;;;;62.87;55.70;;;13.50;99.90;;;;;;5034609;28;20534;-75
2021/06/09 02:10:16;;;;;;;62.27;56.07;;;13.50;99.90;;;;;;5038278;28;20550;-75
2021/06/09 02:12:46;;;;;;;61.53;54.83;;;13.40;99.90;;;;;;5037552;28;20460;-75
2021/06/09 02:15:16;;;;;;;63.20;55.63;;;13.40;99.90;;;;;;5037492;28;20464;-75
2021/06/09 02:17:56;;;;;;;60.00;53.67;;;13.30;99.90;;;;;;5037700;28;20979;-75
2021/06/09 02:20:23;;;;;;;64.63;57.80;;;13.30;99.90;;;;;;5037737;28;20467;-76
2021/06/09 02:22:49;;;;;;;69.13;55.80;;;13.20;99.90;;;;;;5032911;28;20456;-74
2021/06/09 02:25:17;;;;;;;67.33;54.30;;;13.10;99.90;;;;;;5034574;28;20467;-75
2021/06/09 02:27:44;;;;;;;62.87;56.07;;;13.00;99.90;;;;;;5035667;28;20789;-74
2021/06/09 02:30:12;;;;;;;72.67;59.50;;;13.00;99.90;;;;;;5033536;28;20514;-74
2021/06/09 02:32:42;;;;;;;60.13;53.63;;;13.00;99.90;;;;;;5031921;28;20464;-75
2021/06/09 02:35:13;;;;;;;69.37;57.70;;;12.90;99.90;;;;;;5038465;28;20512;-75
2021/06/09 02:37:40;;;;;;;70.90;63.20;;;12.90;99.90;;;;;;5037771;28;20491;-75
2021/06/09 02:40:08;;;;;;;74.30;60.87;;;13.00;99.90;;;;;;5033636;28;20489;-77
2021/06/09 02:42:35;;;;;;;66.37;57.77;;;13.00;99.90;;;;;;5035386;28;20925;-77
2021/06/09 02:45:04;;;;;;;81.53;65.80;;;13.00;99.90;;;;;;5028223;28;20511;-75
2021/06/09 02:47:31;;;;;;;68.77;56.33;;;13.00;99.90;;;;;;5036630;28;20459;-75
2021/06/09 02:50:00;;;;;;;63.40;56.53;;;13.00;99.90;;;;;;5036121;28;20576;-77
2021/06/09 02:52:32;;;;;;;64.60;56.63;;;13.00;99.90;;;;;;5031816;28;20514;-74
2021/06/09 02:55:05;;;;;;;66.80;54.60;;;12.90;99.90;;;;;;5040276;28;20468;-77
2021/06/09 02:57:37;;;;;;;67.87;60.07;;;13.00;99.90;;;;;;5036966;28;20499;-76
2021/06/09 03:00:08;;;;;;;64.77;57.73;;;12.90;99.90;;;;;;5036643;28;20479;-75
2021/06/09 03:02:46;;;;;;;62.63;54.77;;;12.90;99.90;;;;;;5037227;28;20468;-76
2021/06/09 03:05:22;;;;;;;87.27;61.83;;;12.90;99.90;;;;;;5025220;28;20983;-75
2021/06/09 03:07:59;;;;;;;63.20;56.40;;;12.90;99.90;;;;;;5038259;28;20469;-75
2021/06/09 03:10:40;;;;;;;73.87;62.30;;;12.90;99.90;;;;;;5035916;28;20455;-77
2021/06/09 03:13:15;;;;;;;69.97;55.90;;;12.90;99.90;;;;;;5038711;28;20502;-75
2021/06/09 03:15:51;;;;;;;73.07;61.23;;;12.90;99.90;;;;;;5037532;28;20494;-76
2021/06/09 03:18:22;;;;;;;76.93;65.13;;;12.90;99.90;;;;;;5033887;28;21980;-75
2021/06/09 03:20:56;;;;;;;74.67;61.23;;;12.90;99.90;;;;;;5032351;28;20723;-76
2021/06/09 03:23:34;;;;;;;64.53;57.63;;;13.00;99.90;;;;;;5026834;28;20476;-76
2021/06/09 03:26:08;;;;;;;62.23;55.50;;;13.00;99.90;;;;;;5033113;28;20539;-75
2021/06/09 03:28:39;;;;;;;74.10;61.80;;;12.90;99.90;;;;;;5036866;28;20958;-74
2021/06/09 03:31:09;;;;;;;70.60;56.40;;;12.90;99.90;;;;;;5038661;28;20519;-74
2021/06/09 03:33:41;;;;;;;82.97;67.27;;;12.90;99.90;;;;;;5031551;28;20550;-75
2021/06/09 03:36:14;;;;;;;71.17;60.87;;;12.90;99.90;;;;;;5038689;28;20872;-76
2021/06/09 03:38:47;;;;;;;79.90;63.67;;;13.00;99.90;;;;;;5030539;28;20479;-76
2021/06/09 03:41:15;;;;;;;80.03;59.50;;;13.00;99.90;;;;;;5033093;28;20915;-76
2021/06/09 03:43:48;;;;;;;71.37;60.30;;;13.00;99.90;;;;;;5033664;28;20485;-75
2021/06/09 03:46:16;;;;;;;68.97;56.53;;;13.00;99.90;;;;;;5037555;28;20468;-76
2021/06/09 03:48:44;;;;;;;64.70;57.60;;;13.00;99.90;;;;;;5030501;28;20715;-75
2021/06/09 03:51:13;;;;;;;97.10;74.37;;;13.10;99.90;;;;;;5032145;28;20479;-75
2021/06/09 03:53:40;;;;;;;79.97;64.90;;;13.10;99.90;;;;;;5033857;28;20467;-75
2021/06/09 03:56:09;;;;;;;93.87;73.60;;;13.20;99.90;;;;;;5036058;28;20941;-76
2021/06/09 03:58:37;;;;;;;106.83;73.70;;;13.20;99.90;;;;;;5033902;28;21010;-74
2021/06/09 04:01:04;;;;;;;91.47;71.30;;;13.30;99.90;;;;;;5035813;28;20480;-75
2021/06/09 04:03:33;;;;;;;78.50;66.03;;;13.30;99.90;;;;;;5035584;28;20894;-75
2021/06/09 04:06:00;;;;;;;72.07;64.17;;;13.30;99.90;;;;;;5032594;28;20467;-75
2021/06/09 04:08:30;;;;;;;79.80;64.40;;;13.30;99.90;;;;;;5030744;28;20472;-75
2021/06/09 04:10:58;;;;;;;101.40;71.30;;;13.30;99.90;;;;;;5031959;28;20523;-77
2021/06/09 04:13:25;;;;;;;109.37;76.77;;;13.30;99.90;;;;;;5032129;28;20519;-75
2021/06/09 04:15:53;;;;;;;79.37;61.67;;;13.30;99.90;;;;;;5028436;28;20465;-75
2021/06/09 04:18:21;;;;;;;84.50;65.13;;;13.40;99.90;;;;;;5026421;28;20543;-76
2021/06/09 04:20:48;;;;;;;86.23;67.77;;;13.40;99.90;;;;;;5034411;28;20478;-75
2021/06/09 04:23:15;;;;;;;85.73;68.30;;;13.50;99.90;;;;;;5031282;28;20598;-75
2021/06/09 04:25:43;;;;;;;90.53;72.57;;;13.60;99.90;;;;;;5034119;28;20464;-75
2021/06/09 04:28:12;;;;;;;81.20;69.80;;;13.60;99.90;;;;;;5032120;28;20990;-76
2021/06/09 04:30:39;;;;;;;92.77;72.30;;;13.70;99.90;;;;;;5034365;28;20464;-76
2021/06/09 04:33:07;;;;;;;96.57;75.77;;;13.80;99.90;;;;;;5036364;28;20463;-76
2021/06/09 04:35:38;;;;;;;121.97;82.97;;;13.90;99.90;;;;;;5037196;28;20939;-76
2021/06/09 04:38:05;;;;;;;106.40;80.40;;;14.00;99.90;;;;;;5033082;28;20588;-76
2021/06/09 04:40:31;;;;;;;92.53;75.57;;;14.10;99.90;;;;;;5031704;28;20725;-76
2021/06/09 04:43:01;;;;;;;122.30;91.03;;;14.20;99.90;;;;;;5036379;28;20829;-78
2021/06/09 04:45:29;;;;;;;134.87;97.37;;;14.30;99.90;;;;;;5025314;28;20487;-76
2021/06/09 04:47:56;;;;;;;102.37;83.77;;;14.50;99.90;;;;;;5035579;28;20647;-76
2021/06/09 04:50:25;;;;;;;90.00;71.83;;;14.60;99.90;;;;;;5036165;28;20464;-76
2021/06/09 04:52:53;;;;;;;94.50;73.77;;;14.80;99.90;;;;;;5033139;28;20505;-75
2021/06/09 04:55:20;;;;;;;104.67;80.07;;;14.80;99.90;;;;;;5032263;28;20702;-76
2021/06/09 04:57:48;;;;;;;108.27;86.50;;;14.80;99.90;;;;;;5026974;28;20457;-76
2021/06/09 05:00:17;;;;;;;130.27;98.77;;;14.90;99.90;;;;;;5033871;28;20493;-76
2021/06/09 05:02:44;;;;;;;138.87;102.53;;;15.00;99.90;;;;;;5033521;28;20501;-78
2021/06/09 05:05:12;;;;;;;143.33;101.23;;;15.10;99.90;;;;;;5030814;28;20894;-76
2021/06/09 05:07:38;;;;;;;151.40;106.63;;;15.20;99.90;;;;;;5029108;28;20469;-75
2021/06/09 05:10:05;;;;;;;146.17;106.37;;;15.30;99.90;;;;;;5027016;28;20465;-76
2021/06/09 05:12:35;;;;;;;129.17;99.40;;;15.40;99.90;;;;;;5032714;28;20495;-77
2021/06/09 05:15:04;;;;;;;106.83;83.87;;;15.50;99.90;;;;;;5035407;28;20471;-75
2021/06/09 05:17:37;;;;;;;112.93;87.67;;;15.60;99.90;;;;;;5039677;28;20467;-75
2021/06/09 05:20:07;;;;;;;144.47;105.07;;;15.70;99.90;;;;;;5038258;28;20468;-75
2021/06/09 05:22:38;;;;;;;129.20;101.40;;;15.80;99.90;;;;;;5034506;28;20464;-74
2021/06/09 05:25:06;;;;;;;137.30;106.80;;;15.90;99.90;;;;;;5036044;28;20460;-75
2021/06/09 05:27:33;;;;;;;130.93;101.27;;;16.10;99.90;;;;;;5036531;28;22433;-75
2021/06/09 05:30:00;;;;;;;128.67;100.13;;;16.10;99.90;;;;;;5044832;28;21226;-75
2021/06/09 05:32:28;;;;;;;121.10;97.20;;;16.20;99.90;;;;;;5042057;28;20879;-75
2021/06/09 05:34:58;;;;;;;124.63;96.97;;;16.30;99.90;;;;;;5036155;28;20463;-75
2021/06/09 05:37:25;;;;;;;117.70;96.40;;;16.30;99.90;;;;;;5035742;28;20970;-74
2021/06/09 05:39:58;;;;;;;146.63;99.93;;;16.40;99.90;;;;;;5031523;28;20461;-74
2021/06/09 05:42:25;;;;;;;131.00;99.17;;;16.40;99.90;;;;;;5039471;28;20510;-74
2021/06/09 05:44:54;;;;;;;122.93;97.37;;;16.50;99.90;;;;;;5038869;28;20496;-75
2021/06/09 05:47:20;;;;;;;115.60;95.97;;;16.50;99.90;;;;;;5036837;28;20741;-74
2021/06/09 05:49:47;;;;;;;122.67;92.77;;;16.60;99.90;;;;;;5035390;28;20548;-74
2021/06/09 05:52:15;;;;;;;110.83;93.07;;;16.70;99.90;;;;;;5039330;28;20507;-75
2021/06/09 05:54:43;;;;;;;107.03;91.77;;;16.90;99.90;;;;;;5033931;28;20706;-75
2021/06/09 05:57:11;;;;;;;103.90;89.93;;;16.90;99.90;;;;;;5034232;28;20494;-76
2021/06/09 05:59:40;;;;;;;104.07;90.10;;;17.00;99.90;;;;;;5041539;28;20508;-74
2021/06/09 06:02:07;;;;;;;107.80;88.20;;;17.10;99.90;;;;;;5036056;28;20475;-74
2021/06/09 06:04:35;;;;;;;96.63;85.07;;;17.20;99.90;;;;;;5037653;28;20465;-74
2021/06/09 06:07:02;;;;;;;93.00;82.47;;;17.40;99.90;;;;;;5041398;28;20465;-75
2021/06/09 06:09:31;;;;;;;96.10;81.73;;;17.50;99.90;;;;;;5034186;28;20472;-76
2021/06/09 06:11:57;;;;;;;93.57;79.87;;;17.60;99.90;;;;;;5034740;28;20852;-76
2021/06/09 06:14:25;;;;;;;91.80;77.80;;;17.60;99.90;;;;;;5033907;28;20846;-75
2021/06/09 06:16:52;;;;;;;95.37;80.93;;;17.80;99.90;;;;;;5037875;28;20884;-74
2021/06/09 06:19:19;;;;;;;94.57;82.47;;;17.90;99.90;;;;;;5036691;28;20478;-73
2021/06/09 06:21:46;;;;;;;91.17;81.37;;;18.00;99.90;;;;;;5038654;28;20579;-74
2021/06/09 06:24:16;;;;;;;93.00;82.87;;;18.00;99.90;;;;;;5035919;28;20468;-74
2021/06/09 06:26:45;;;;;;;91.30;80.50;;;18.10;99.90;;;;;;5031607;28;20791;-74
2021/06/09 06:29:12;;;;;;;87.97;78.67;;;18.20;99.90;;;;;;5030860;28;20475;-74
2021/06/09 06:31:39;;;;;;;86.63;76.47;;;18.50;99.90;;;;;;5036536;28;20482;-74
2021/06/09 06:34:06;;;;;;;83.80;74.97;;;18.70;99.90;;;;;;5035965;28;20975;-74
2021/06/09 06:36:33;;;;;;;85.87;77.07;;;18.80;99.90;;;;;;5037378;28;20502;-74
2021/06/09 06:39:00;;;;;;;82.07;73.03;;;18.90;99.90;;;;;;5041548;28;20470;-74
2021/06/09 06:41:28;;;;;;;84.00;73.47;;;19.20;99.90;;;;;;5033015;28;20491;-74
2021/06/09 06:43:57;;;;;;;81.23;72.63;;;19.30;99.90;;;;;;5029398;28;20487;-73
2021/06/09 06:46:24;;;;;;;82.10;73.30;;;19.40;99.90;;;;;;5031673;28;20817;-74
2021/06/09 06:48:53;;;;;;;81.43;72.03;;;19.50;99.90;;;;;;5037508;28;20460;-74
2021/06/09 06:51:20;;;;;;;80.57;71.87;;;19.60;99.90;;;;;;5031627;28;20997;-75
2021/06/09 06:53:49;;;;;;;75.53;67.60;;;19.90;99.90;;;;;;5038275;28;21174;-74
2021/06/09 06:56:16;;;;;;;75.10;67.07;;;20.10;99.90;;;;;;5037444;28;20498;-74
2021/06/09 06:58:48;;;;;;;74.17;66.37;;;20.30;99.90;;;;;;5033058;28;20472;-74
2021/06/09 07:01:18;;;;;;;72.03;64.67;;;20.50;99.90;;;;;;5031892;28;20519;-74
2021/06/09 07:03:45;;;;;;;68.33;61.40;;;20.70;99.90;;;;;;5034947;28;20469;-74
2021/06/09 07:06:12;;;;;;;71.07;63.33;;;20.90;99.90;;;;;;5035555;28;20499;-74
2021/06/09 07:08:39;;;;;;;68.23;61.57;;;21.10;99.90;;;;;;5041042;28;20538;-74
2021/06/09 07:11:06;;;;;;;67.83;59.20;;;21.30;99.90;;;;;;5038061;28;20479;-74
2021/06/09 07:13:33;;;;;;;64.87;58.27;;;21.20;99.90;;;;;;5031635;28;20486;-74
2021/06/09 07:16:01;;;;;;;68.30;61.40;;;21.20;99.90;;;;;;5035819;28;20470;-74
2021/06/09 07:18:30;;;;;;;66.20;59.70;;;21.50;99.90;;;;;;5034233;28;20472;-74
2021/06/09 07:20:57;;;;;;;63.40;56.80;;;21.70;99.90;;;;;;5035061;28;20521;-74
2021/06/09 07:23:24;;;;;;;64.10;57.83;;;22.00;99.90;;;;;;5029785;28;20476;-74
2021/06/09 07:25:52;;;;;;;64.50;57.60;;;22.10;99.90;;;;;;5030846;28;20925;-74
2021/06/09 07:28:19;;;;;;;59.47;53.57;;;22.00;99.90;;;;;;5037584;28;20464;-74
2021/06/09 07:30:46;;;;;;;64.43;57.33;;;22.30;99.90;;;;;;5040487;28;21035;-74
2021/06/09 07:33:14;;;;;;;60.23;54.13;;;22.40;99.90;;;;;;5037667;28;20472;-74
2021/06/09 07:35:42;;;;;;;59.23;53.40;;;22.30;99.90;;;;;;5032677;28;20848;-73
2021/06/09 07:38:20;;;;;;;59.10;53.30;;;22.30;99.90;;;;;;5034343;28;20468;-73
2021/06/09 07:40:53;;;;;;;60.73;54.40;;;22.40;99.90;;;;;;5032999;28;20464;-73
2021/06/09 07:43:24;;;;;;;58.53;52.63;;;22.20;99.90;;;;;;5035358;28;20479;-73
2021/06/09 07:45:52;;;;;;;57.57;51.27;;;22.50;99.90;;;;;;5038356;28;20463;-73
2021/06/09 07:48:22;;;;;;;53.60;48.30;;;22.70;99.90;;;;;;5036280;28;20465;-74
2021/06/09 07:50:52;;;;;;;55.13;49.63;;;23.00;99.90;;;;;;5034967;28;20945;-73
2021/06/09 07:53:19;;;;;;;49.93;45.13;;;23.20;99.90;;;;;;5033550;28;20465;-74
2021/06/09 07:55:47;;;;;;;48.17;43.70;;;23.00;99.90;;;;;;5032083;28;20866;-73
2021/06/09 07:58:18;;;;;;;49.93;44.87;;;23.30;99.90;;;;;;5029427;28;20977;-73
2021/06/09 08:00:44;;;;;;;48.57;44.07;;;23.50;99.90;;;;;;5031255;28;20670;-73
2021/06/09 08:03:11;;;;;;;46.53;42.33;;;23.60;99.90;;;;;;5036777;28;20472;-73
2021/06/09 08:05:39;;;;;;;45.20;41.10;;;24.10;99.90;;;;;;5028853;28;20460;-73
2021/06/09 08:08:07;;;;;;;49.17;43.87;;;25.00;99.90;;;;;;5030523;28;21171;-73
2021/06/09 08:10:34;;;;;;;43.80;39.97;;;25.40;99.90;;;;;;5033091;28;20468;-73
2021/06/09 08:13:02;;;;;;;44.97;40.80;;;25.50;99.90;;;;;;5035074;28;20544;-73
2021/06/09 08:15:28;;;;;;;42.10;38.40;;;26.40;99.90;;;;;;5029942;28;20455;-73
2021/06/09 08:17:54;;;;;;;47.87;42.97;;;26.50;99.90;;;;;;5029977;28;20951;-73
2021/06/09 08:20:23;;;;;;;44.07;40.27;;;27.30;99.90;;;;;;5031584;28;20752;-73
2021/06/09 08:22:50;;;;;;;45.77;41.20;;;27.00;99.90;;;;;;5028918;28;20947;-73
2021/06/09 08:25:23;;;;;;;44.00;40.30;;;27.70;99.90;;;;;;5033086;28;20967;-73
2021/06/09 08:27:51;;;;;;;44.47;40.37;;;26.80;99.90;;;;;;5037378;28;20467;-73
2021/06/09 08:30:19;;;;;;;40.77;37.23;;;27.60;99.90;;;;;;5032543;28;20463;-73
2021/06/09 08:32:47;;;;;;;40.70;36.80;;;28.20;99.90;;;;;;5029041;28;20487;-73
2021/06/09 08:35:14;;;;;;;44.47;40.77;;;28.10;99.90;;;;;;5034400;28;20996;-73
2021/06/09 08:37:41;;;;;;;44.03;39.73;;;27.90;99.90;;;;;;5032084;28;20472;-73
2021/06/09 08:40:12;;;;;;;47.53;43.03;;;27.90;99.90;;;;;;5035811;28;20461;-73
2021/06/09 08:42:42;;;;;;;46.47;42.47;;;28.20;99.90;;;;;;5037491;28;20468;-73
2021/06/09 08:45:11;;;;;;;46.60;42.27;;;28.30;99.90;;;;;;5031829;28;20475;-73
2021/06/09 08:47:38;;;;;;;40.70;37.27;;;29.10;99.90;;;;;;5031107;28;20473;-73
2021/06/09 08:50:07;;;;;;;43.83;39.57;;;29.70;99.90;;;;;;5034637;28;20514;-74
2021/06/09 08:52:34;;;;;;;43.13;39.50;;;30.10;99.90;;;;;;5029466;28;20905;-73
2021/06/09 08:55:00;;;;;;;44.80;40.87;;;29.80;99.90;;;;;;5040235;28;20467;-73
2021/06/09 08:57:28;;;;;;;42.70;39.17;;;29.30;99.90;;;;;;5033995;28;20471;-74
2021/06/09 08:59:56;;;;;;;39.80;36.50;;;30.50;99.90;;;;;;5038888;28;20562;-73
2021/06/09 09:02:22;;;;;;;38.37;35.17;;;31.40;99.90;;;;;;5034887;28;20967;-73
2021/06/09 09:04:50;;;;;;;40.03;36.63;;;31.60;99.50;;;;;;5033984;28;20953;-74
2021/06/09 09:07:17;;;;;;;39.53;36.33;;;31.00;98.00;;;;;;5042355;28;20463;-73
2021/06/09 09:09:44;;;;;;;41.03;37.33;;;30.10;98.70;;;;;;5034359;28;20457;-73
2021/06/09 09:12:11;;;;;;;39.43;36.13;;;29.60;99.90;;;;;;5036723;28;20495;-73
2021/06/09 09:14:37;;;;;;;30.50;28.10;;;28.40;99.90;;;;;;5038175;28;20475;-73
2021/06/09 09:17:08;;;;;;;34.17;31.03;;;27.90;99.90;;;;;;5035660;28;20472;-73
2021/06/09 09:19:38;;;;;;;36.53;33.40;;;28.10;99.70;;;;;;5037716;28;20995;-73
2021/06/09 09:22:04;;;;;;;37.17;33.90;;;28.40;99.00;;;;;;5037550;28;20854;-73
2021/06/09 09:24:40;;;;;;;34.17;31.13;;;28.70;99.60;;;;;;5040252;28;20544;-74
2021/06/09 09:27:07;;;;;;;38.23;34.83;;;29.20;99.90;;;;;;5034841;28;21122;-73
2021/06/09 09:29:35;;;;;;;37.90;34.77;;;29.60;98.30;;;;;;5038024;28;20471;-73
2021/06/09 09:32:07;;;;;;;35.00;32.07;;;29.70;98.50;;;;;;5042443;28;20476;-73
2021/06/09 09:34:39;;;;;;;34.97;31.73;;;29.70;97.60;;;;;;5029232;28;20944;-73
2021/06/09 09:37:11;;;;;;;35.43;32.53;;;30.70;97.50;;;;;;5038564;28;20468;-73
2021/06/09 09:39:40;;;;;;;33.87;31.17;;;31.50;95.60;;;;;;5040314;28;20463;-73
2021/06/09 09:42:26;;;;;;;34.00;31.40;;;31.60;95.50;;;;;;5040776;28;20538;-73
2021/06/09 09:44:53;;;;;;;32.10;29.43;;;30.80;96.20;;;;;;5034328;28;20487;-73
2021/06/09 09:47:23;;;;;;;29.10;26.83;;;30.60;96.00;;;;;;5035803;28;21061;-73
2021/06/09 09:49:50;;;;;;;32.53;30.10;;;30.40;95.50;;;;;;5032359;28;20897;-74
2021/06/09 09:52:18;;;;;;;30.83;28.47;;;30.90;95.00;;;;;;5038921;28;20487;-73
2021/06/09 09:54:45;;;;;;;35.70;32.03;;;31.00;94.50;;;;;;5034014;28;20737;-73
2021/06/09 09:57:13;;;;;;;35.37;32.80;;;31.30;95.20;;;;;;5040160;28;20865;-74
2021/06/09 09:59:42;;;;;;;33.80;30.73;;;31.10;94.40;;;;;;5037865;28;20502;-73
2021/06/09 10:02:16;;;;;;;34.03;31.43;;;30.90;94.40;;;;;;5035932;28;20464;-72
2021/06/09 10:04:49;;;;;;;34.53;31.77;;;31.30;93.00;;;;;;5036131;28;20471;-73
2021/06/09 10:07:16;;;;;;;30.77;28.53;;;32.00;92.40;;;;;;5031548;28;20471;-73
2021/06/09 10:09:44;;;;;;;33.70;30.97;;;32.10;93.60;;;;;;5041459;28;20832;-73
2021/06/09 10:12:13;;;;;;;31.50;29.10;;;32.00;92.20;;;;;;5038104;28;20526;-73
2021/06/09 10:14:42;;;;;;;33.80;31.20;;;32.00;92.90;;;;;;5032597;28;20461;-74
2021/06/09 10:17:11;;;;;;;34.40;31.90;;;31.20;92.40;;;;;;5038602;28;20884;-72
2021/06/09 10:19:39;;;;;;;32.43;29.93;;;31.30;91.70;;;;;;5030233;28;20464;-73
2021/06/09 10:22:08;;;;;;;31.67;29.37;;;30.90;94.00;;;;;;5039719;28;20465;-72
2021/06/09 10:24:46;;;;;;;31.03;28.67;;;31.30;92.70;;;;;;5037994;28;20478;-73
2021/06/09 10:27:14;;;;;;;28.80;26.90;;;31.90;91.60;;;;;;5034533;28;20474;-73
2021/06/09 10:29:41;;;;;;;32.27;29.93;;;31.40;92.60;;;;;;5036074;28;20546;-73
2021/06/09 10:32:09;;;;;;;29.87;27.40;;;31.00;91.50;;;;;;5031763;28;20921;-73
2021/06/09 10:34:37;;;;;;;29.90;27.67;;;32.10;92.40;;;;;;5035927;28;20456;-72
2021/06/09 10:37:07;;;;;;;31.73;29.30;;;32.50;89.30;;;;;;5039440;28;20540;-73
2021/06/09 10:39:39;;;;;;;30.87;28.57;;;33.70;87.50;;;;;;5038465;28;21057;-73
2021/06/09 10:42:07;;;;;;;30.73;28.27;;;34.10;85.90;;;;;;5037162;28;21041;-73
2021/06/09 10:44:37;;;;;;;31.30;29.07;;;33.50;88.50;;;;;;5032214;28;20489;-72
2021/06/09 10:47:05;;;;;;;31.00;28.50;;;31.90;91.20;;;;;;5038868;28;20457;-73
2021/06/09 10:49:33;;;;;;;29.97;27.53;;;31.00;92.00;;;;;;5029543;28;20875;-73
2021/06/09 10:52:00;;;;;;;29.83;27.70;;;30.40;93.10;;;;;;5042523;28;20525;-73
2021/06/09 10:54:29;;;;;;;28.30;25.73;;;30.60;94.30;;;;;;5036776;28;20517;-73
2021/06/09 10:56:56;;;;;;;31.10;28.80;;;30.60;94.60;;;;;;5037418;28;20982;-73
2021/06/09 10:59:25;;;;;;;29.83;27.60;;;30.80;92.50;;;;;;5036411;28;20524;-72
2021/06/09 11:01:56;;;;;;;29.27;26.43;;;31.20;90.90;;;;;;5042765;28;20992;-72
2021/06/09 11:04:24;;;;;;;29.10;27.03;;;30.90;92.60;;;;;;5037086;28;20758;-73
2021/06/09 11:06:53;;;;;;;27.17;25.17;;;31.50;89.20;;;;;;5036010;28;20468;-72
2021/06/09 11:09:21;;;;;;;27.13;25.07;;;31.50;89.80;;;;;;5038931;28;20464;-73
2021/06/09 11:12:17;;;;;;;26.50;24.83;;;31.50;87.50;;;;;;5035000;28;20483;-73
2021/06/09 11:14:49;;;;;;;25.50;23.70;;;31.80;86.50;;;;;;5031087;28;20456;-73
2021/06/09 11:17:33;;;;;;;24.67;22.90;;;31.80;82.90;;;;;;5038742;28;20975;-73
2021/06/09 11:20:15;;;;;;;25.20;23.50;;;32.20;83.10;;;;;;5038008;28;20478;-73
2021/06/09 11:22:43;;;;;;;24.87;23.13;;;32.90;81.60;;;;;;5040903;28;20549;-73
2021/06/09 11:25:14;;;;;;;25.43;23.73;;;32.50;86.20;;;;;;5030976;28;20551;-73
2021/06/09 11:27:54;;;;;;;25.30;23.60;;;32.80;82.80;;;;;;5038563;28;20513;-74
2021/06/09 11:30:41;;;;;;;24.80;23.10;;;32.40;83.20;;;;;;5034883;28;20464;-73
2021/06/09 11:33:09;;;;;;;26.00;23.90;;;32.80;81.90;;;;;;5035972;28;20496;-73
2021/06/09 11:35:46;;;;;;;26.10;24.37;;;34.10;80.00;;;;;;5030025;28;20471;-73
2021/06/09 11:38:27;;;;;;;25.13;23.27;;;34.40;78.80;;;;;;5033267;28;20464;-73
2021/06/09 11:40:59;;;;;;;25.47;23.67;;;34.80;78.60;;;;;;5037095;28;20840;-72
2021/06/09 11:43:34;;;;;;;27.20;25.30;;;33.70;81.70;;;;;;5037470;28;20456;-73
2021/06/09 11:46:04;;;;;;;28.10;26.20;;;32.90;79.50;;;;;;5039286;28;20648;-73
2021/06/09 11:48:32;;;;;;;24.57;22.90;;;33.10;78.20;;;;;;5037389;28;20464;-73
2021/06/09 11:51:20;;;;;;;24.83;23.33;;;33.70;79.20;;;;;;5034493;28;20475;-73
2021/06/09 11:53:48;;;;;;;24.50;23.07;;;35.20;75.40;;;;;;5031048;28;21046;-73
2021/06/09 11:56:18;;;;;;;25.87;24.13;;;36.00;73.20;;;;;;5031797;28;20464;-73
2021/06/09 11:58:51;;;;;;;27.93;25.70;;;35.80;75.10;;;;;;5029822;28;20468;-73
2021/06/09 12:01:22;;;;;;;23.87;22.37;;;35.00;70.80;;;;;;5039989;28;20511;-73
2021/06/09 12:04:13;;;;;;;24.40;22.80;;;34.90;70.20;;;;;;5038822;28;20783;-73
2021/06/09 12:06:42;;;;;;;24.47;22.77;;;35.60;70.20;;;;;;5035918;28;20470;-73
2021/06/09 12:09:09;;;;;;;24.70;23.10;;;35.50;68.10;;;;;;5036674;28;20473;-73
2021/06/09 12:11:37;;;;;;;23.93;22.33;;;36.30;66.80;;;;;;5034117;28;20585;-72
2021/06/09 12:14:19;;;;;;;25.60;23.90;;;36.80;63.70;;;;;;5033831;28;20460;-73
2021/06/09 12:16:46;;;;;;;25.30;23.80;;;37.10;63.70;;;;;;5032954;28;20884;-73
2021/06/09 12:19:32;;;;;;;24.70;22.70;;;36.20;64.20;;;;;;5036507;28;21254;-73
2021/06/09 12:22:04;;;;;;;25.07;23.47;;;35.00;67.00;;;;;;5037764;28;20464;-73
2021/06/09 12:24:31;;;;;;;25.00;23.30;;;33.70;68.00;;;;;;5030434;28;20507;-73
2021/06/09 12:27:01;;;;;;;22.67;21.20;;;34.60;65.70;;;;;;5030964;28;20475;-74
2021/06/09 12:29:32;;;;;;;26.20;24.70;;;35.90;66.30;;;;;;5046588;28;20869;-73
2021/06/09 12:32:01;;;;;;;24.80;23.20;;;35.10;63.70;;;;;;5035712;28;20491;-73
2021/06/09 12:34:33;;;;;;;24.87;23.30;;;35.60;63.00;;;;;;5033595;28;20459;-73